D/T METAR WX W/DIR W/SPE G/SPE TEMP DEWP
24/04/19 20:00 EIME 241900Z 20006KT 160V240 9999 FEW020 SCT035 BKN060 09/07 Q0989 SSW (200°) 6.9mph 9°C 7°C
24/04/19 19:00 EIME 241800Z 19012KT 9999 FEW025 BKN042 09/07 Q0988 S (190°) 13.8mph 9°C 7°C
24/04/19 18:00 EIME 241700Z 16003KT 9999 RA FEW010 BKN035 10/09 Q0988 RA SSE (160°) 3.5mph 10°C 9°C
24/04/19 17:00 EIME 241600Z 26004KT 9999 RA FEW010 SCT019 BKN026 10/09 Q0988 RA W (260°) 4.6mph 10°C 9°C
24/04/19 16:30 EIME 241530Z 29003KT 9000 RA FEW010 BKN015 BKN020 10/09 Q0988 RA WNW (290°) 3.5mph 10°C 9°C
24/04/19 16:00 EIME 241500Z 21009KT 9999 -RA FEW010 BKN015 BKN020 11/09 Q0988 -RA SSW (210°) 10.4mph 11°C 9°C
24/04/19 15:30 EIME 241430Z 22007KT 9999 FEW015 BKN022 BKN028 12/09 Q0988 SW (220°) 8.1mph 12°C 9°C
24/04/19 15:00 EIME 241400Z 09007KT 9999 FEW016 BKN022 BKN028 14/10 Q0988 E (90°) 8.1mph 14°C 10°C
24/04/19 14:30 EIME 241330Z 10006KT 9999 FEW018 BKN022 13/10 Q0988 E (100°) 6.9mph 13°C 10°C
24/04/19 14:00 EIME 241300Z 09008KT 9999 FEW018 SCT026 BKN045 14/10 Q0988 E (90°) 9.2mph 14°C 10°C
24/04/19 13:30 EIME 241230Z 10006KT 9999 FEW012 SCT030 BKN060 13/11 Q0988 E (100°) 6.9mph 13°C 11°C
24/04/19 13:00 EIME 241200Z 09007KT 9000 FEW010 BKN029 BKN060 13/10 Q0988 E (90°) 8.1mph 13°C 10°C
24/04/19 12:30 EIME 241130Z 10008KT 9000 FEW012 BKN029 BKN080 13/11 Q0988 E (100°) 9.2mph 13°C 11°C
24/04/19 12:00 EIME 241100Z 08006KT 9000 VCSH FEW012 BKN060 BKN080 13/11 Q0988 VCSH E (80°) 6.9mph 13°C 11°C
24/04/19 11:30 EIME 241030Z 08005KT 9000 VCSH FEW012 SCT038 BKN060 13/11 Q0989 VCSH E (80°) 5.8mph 13°C 11°C
24/04/19 11:00 EIME 241000Z 05006KT 9999 FEW012 SCT030 BKN060 12/09 Q0989 NE (50°) 6.9mph 12°C 9°C
24/04/19 10:30 EIME 240930Z 05005KT 5000 BR FEW010 SCT027 BKN070 12/10 Q0989 BR NE (50°) 5.8mph 12°C 10°C
24/04/19 10:00 EIME 240900Z 06005KT 5000 BR FEW010 SCT026 BKN038 12/09 Q0989 BR ENE (60°) 5.8mph 12°C 9°C
24/04/19 09:30 EIME 240830Z 06005KT 6000 VCSH FEW010 OVC026 11/09 Q0989 VCSH ENE (60°) 5.8mph 11°C 9°C
24/04/19 09:00 EIME 240800Z 07005KT 5000 BR FEW010 OVC035 10/09 Q0990 BR ENE (70°) 5.8mph 10°C 9°C
24/04/19 08:30 EIME 240730Z 06004KT 7000 FEW008 BKN035 BKN100 10/09 Q0990 ENE (60°) 4.6mph 10°C 9°C
24/04/19 08:00 EIME 240700Z 03004KT 9999 FEW008 SCT034 BKN045 10/09 Q0989 NNE (30°) 4.6mph 10°C 9°C
24/04/19 07:00 EIME 240600Z 06003KT 9999 FEW040 BKN060 BKN120 10/09 Q0990 ENE (60°) 3.5mph 10°C 9°C
24/04/19 06:00 EIME 240500Z 07003KT 9999 FEW014 BKN060 BKN120 10/09 Q0990 ENE (70°) 3.5mph 10°C 9°C
24/04/19 05:00 EIME 240400Z 06004KT 9999 FEW016 SCT130 BKN250 11/09 Q0991 ENE (60°) 4.6mph 11°C 9°C
24/04/19 04:00 EIME 240300Z 08005KT 9999 FEW018 SCT090 BKN150 11/09 Q0991 E (80°) 5.8mph 11°C 9°C
24/04/19 03:00 EIME 240200Z 10007KT 9999 FEW018 BKN080 12/09 Q0992 E (100°) 8.1mph 12°C 9°C
24/04/19 02:00 EIME 240100Z 10007KT 9999 FEW018 BKN090 12/09 Q0992 E (100°) 8.1mph 12°C 9°C
24/04/19 01:00 EIME 240000Z 08007KT 9999 FEW019 BKN090 13/09 Q0993 E (80°) 8.1mph 13°C 9°C
24/04/19 00:00 EIME 232300Z 07006KT 9999 FEW019 BKN100 13/09 Q0993 ENE (70°) 6.9mph 13°C 9°C
23/04/19 23:00 EIME 232200Z 08006KT 9999 FEW020 BKN110 13/09 Q0994 E (80°) 6.9mph 13°C 9°C
23/04/19 22:00 EIME 232100Z 04004KT 9999 FEW020 SCT090 BKN140 13/09 Q0994 NE (40°) 4.6mph 13°C 9°C
23/04/19 21:00 EIME 232000Z 16008KT 9999 FEW030 SCT080 BKN140 16/08 Q0994 SSE (160°) 9.2mph 16°C 8°C
23/04/19 20:00 EIME 231900Z 14007KT 9999 FEW030 SCT120 BKN250 17/07 Q0994 SE (140°) 8.1mph 17°C 7°C
23/04/19 19:00 EIME 231800Z 15007KT 120V190 9999 FEW030 BKN250 18/08 Q0993 SSE (150°) 8.1mph 18°C 8°C
23/04/19 18:00 EIME 231700Z 13008KT 090V160 9999 FEW030 BKN250 18/11 Q0993 SE (130°) 9.2mph 18°C 11°C
23/04/19 17:00 EIME 231600Z 08009KT 9999 FEW030 BKN250 16/10 Q0993 E (80°) 10.4mph 16°C 10°C
23/04/19 16:30 EIME 231530Z 08009KT 9999 FEW030 BKN250 16/10 Q0994 E (80°) 10.4mph 16°C 10°C
23/04/19 16:00 EIME 231500Z 08010KT 9999 FEW030 SCT080 15/09 Q0994 E (80°) 11.5mph 15°C 9°C
23/04/19 15:30 EIME 231430Z 07011KT 030V100 9999 FEW030 SCT080 15/09 Q0994 ENE (70°) 12.7mph 15°C 9°C
23/04/19 15:00 EIME 231400Z 07013KT 040V100 9999 FEW030 SCT080 16/09 Q0994 ENE (70°) 15.0mph 16°C 9°C
23/04/19 14:30 EIME 231330Z 08014KT 9999 FEW030 BKN100 17/08 Q0995 E (80°) 16.1mph 17°C 8°C
23/04/19 14:00 EIME 231300Z 08011KT 9999 FEW030 SCT080 BKN100 18/09 Q0995 E (80°) 12.7mph 18°C 9°C
23/04/19 13:30 EIME 231230Z 06007KT 9999 FEW030 BKN080 17/08 Q0995 ENE (60°) 8.1mph 17°C 8°C
23/04/19 13:00 EIME 231200Z 07008KT 9999 FEW030 BKN090 16/09 Q0996 ENE (70°) 9.2mph 16°C 9°C
23/04/19 12:30 EIME 231130Z 08010KT 040V110 9999 FEW018 SCT030 BKN110 16/09 Q0996 E (80°) 11.5mph 16°C 9°C
23/04/19 12:00 EIME 231100Z 07007KT 9000 FEW018 SCT070 BKN110 14/10 Q0996 ENE (70°) 8.1mph 14°C 10°C
23/04/19 11:30 EIME 231030Z 07007KT 040V100 9000 FEW018 SCT070 BKN090 14/10 Q0996 ENE (70°) 8.1mph 14°C 10°C
23/04/19 11:00 EIME 231000Z 07005KT 030V100 9000 FEW018 SCT070 BKN090 12/10 Q0996 ENE (70°) 5.8mph 12°C 10°C
23/04/19 10:30 EIME 230930Z VRB03KT 9000 FEW018 SCT070 BKN090 12/10 Q0996 N (0°) 3.5mph 12°C 10°C
23/04/19 10:00 EIME 230900Z 06006KT 030V100 9000 FEW018 BKN070 12/09 Q0997 ENE (60°) 6.9mph 12°C 9°C
23/04/19 09:30 EIME 230830Z 05006KT 9999 FEW018 BKN070 12/09 Q0997 NE (50°) 6.9mph 12°C 9°C
23/04/19 09:00 EIME 230800Z 06007KT 030V090 9999 FEW018 BKN070 12/08 Q0997 ENE (60°) 8.1mph 12°C 8°C
23/04/19 08:00 EIME 230700Z 09008KT 9999 FEW018 BKN070 11/08 Q0997 E (90°) 9.2mph 11°C 8°C
23/04/19 07:00 EIME 230600Z 07008KT 9999 FEW018 SCT080 BKN130 11/08 Q0997 ENE (70°) 9.2mph 11°C 8°C
23/04/19 06:00 EIME 230500Z 07006KT 9999 FEW018 SCT090 BKN130 11/08 Q0997 ENE (70°) 6.9mph 11°C 8°C
23/04/19 05:00 EIME 230400Z VRB03KT CAVOK 11/08 Q0997 N (0°) 3.5mph 11°C 8°C
23/04/19 04:00 EIME 230300Z 07004KT 030V100 CAVOK 10/08 Q0998 ENE (70°) 4.6mph 10°C 8°C
23/04/19 03:00 EIME 230200Z 08004KT 030V130 9999 SCT080 BKN120 11/08 Q0998 E (80°) 4.6mph 11°C 8°C
23/04/19 02:00 EIME 230100Z 01004KT 9999 FEW030 BKN110 12/07 Q0999 N (10°) 4.6mph 12°C 7°C
23/04/19 01:00 EIME 230000Z VRB03KT 9999 FEW030 SCT120 BKN140 12/06 Q0999 N (0°) 3.5mph 12°C 6°C
23/04/19 00:00 EIME 222300Z 14006KT CAVOK 13/06 Q0999 SE (140°) 6.9mph 13°C 6°C
22/04/19 23:00 EIME 222200Z VRB01KT CAVOK 13/08 Q0999 N (0°) 1.2mph 13°C 8°C
22/04/19 22:00 EIME 222100Z VRB03KT CAVOK 14/08 Q0999 N (0°) 3.5mph 14°C 8°C
22/04/19 21:00 EIME 222000Z VRB03KT CAVOK 14/08 Q0999 N (0°) 3.5mph 14°C 8°C
22/04/19 20:00 EIME 221900Z 13008KT 9999 FEW030 BKN140 15/08 Q0999 SE (130°) 9.2mph 15°C 8°C
22/04/19 19:00 EIME 221800Z 13011KT 9999 FEW030 SCT140 BKN250 18/07 Q0999 SE (130°) 12.7mph 18°C 7°C
22/04/19 18:00 EIME 221700Z 06009KT 030V110 9999 FEW030 SCT150 BKN250 17/08 Q0999 ENE (60°) 10.4mph 17°C 8°C
22/04/19 17:00 EIME 221600Z 12013KT 9999 FEW030 SCT150 BKN250 20/06 Q0999 ESE (120°) 15.0mph 20°C 6°C
22/04/19 16:00 EIME 221500Z 14017KT 9999 FEW030 BKN250 20/06 Q1000 SE (140°) 19.6mph 20°C 6°C
22/04/19 15:00 EIME 221400Z 15014KT 9999 FEW030 SCT250 20/06 Q1000 SSE (150°) 16.1mph 20°C 6°C
22/04/19 14:00 EIME 221300Z 16017KT CAVOK 20/06 Q1001 SSE (160°) 19.6mph 20°C 6°C
22/04/19 13:00 EIME 221200Z 14015KT CAVOK 20/05 Q1001 SE (140°) 17.3mph 20°C 5°C
22/04/19 12:00 EIME 221100Z 14012KT CAVOK 19/05 Q1002 SE (140°) 13.8mph 19°C 5°C
22/04/19 11:00 EIME 221000Z 12011KT CAVOK 18/05 Q1002 ESE (120°) 12.7mph 18°C 5°C
22/04/19 10:00 EIME 220900Z 12014KT CAVOK 16/06 Q1003 ESE (120°) 16.1mph 16°C 6°C
22/04/19 09:00 EIME 220800Z 11005KT 070V190 CAVOK 14/06 Q1003 ESE (110°) 5.8mph 14°C 6°C
22/04/19 08:00 EIME 220700Z 07005KT 360V170 CAVOK 11/06 Q1004 ENE (70°) 5.8mph 11°C 6°C
22/04/19 07:00 EIME 220600Z 10010KT CAVOK 11/05 Q1004 E (100°) 11.5mph 11°C 5°C
22/04/19 06:00 EIME 220500Z VRB02KT CAVOK 11/03 Q1004 N (0°) 2.3mph 11°C 3°C
22/04/19 05:00 EIME 220400Z 15009KT CAVOK 11/03 Q1005 SSE (150°) 10.4mph 11°C 3°C
22/04/19 04:00 EIME 220300Z 15011KT CAVOK 13/03 Q1006 SSE (150°) 12.7mph 13°C 3°C
22/04/19 03:00 EIME 220200Z 17010KT CAVOK 13/02 Q1007 S (170°) 11.5mph 13°C 2°C
22/04/19 02:00 EIME 220100Z 19014KT CAVOK 14/00 Q1008 S (190°) 16.1mph 14°C 0°C
22/04/19 01:00 EIME 220000Z VRB01KT CAVOK 12/03 Q1008 N (0°) 1.2mph 12°C 3°C
22/04/19 00:00 EIME 212300Z VRB03KT CAVOK 13/04 Q1009 N (0°) 3.5mph 13°C 4°C
21/04/19 23:00 EIME 212200Z 19008KT CAVOK 14/04 Q1009 S (190°) 9.2mph 14°C 4°C
21/04/19 22:00 EIME 212100Z 21014KT CAVOK 14/05 Q1009 SSW (210°) 16.1mph 14°C 5°C
21/04/19 21:00 EIME 212000Z 20011KT CAVOK 15/06 Q1010 SSW (200°) 12.7mph 15°C 6°C
21/04/19 20:00 EIME 211900Z 20014KT CAVOK 16/06 Q1011 SSW (200°) 16.1mph 16°C 6°C
21/04/19 19:00 EIME 211800Z 21016KT CAVOK 18/07 Q1012 SSW (210°) 18.4mph 18°C 7°C
21/04/19 18:00 EIME 211700Z 22015KT CAVOK 19/06 Q1012 SW (220°) 17.3mph 19°C 6°C
21/04/19 17:00 EIME 211600Z 21016KT CAVOK 20/06 Q1013 SSW (210°) 18.4mph 20°C 6°C
21/04/19 16:00 EIME 211500Z 22015KT CAVOK 20/06 Q1014 SW (220°) 17.3mph 20°C 6°C
21/04/19 15:00 EIME 211400Z 21014KT CAVOK 20/06 Q1015 SSW (210°) 16.1mph 20°C 6°C
21/04/19 14:00 EIME 211300Z 22015KT CAVOK 21/06 Q1016 SW (220°) 17.3mph 21°C 6°C
21/04/19 13:00 EIME 211200Z 22013KT CAVOK 20/07 Q1017 SW (220°) 15.0mph 20°C 7°C
21/04/19 12:00 EIME 211100Z 24011KT CAVOK 20/07 Q1017 WSW (240°) 12.7mph 20°C 7°C
21/04/19 11:00 EIME 211000Z 22009KT CAVOK 18/08 Q1018 SW (220°) 10.4mph 18°C 8°C
21/04/19 10:00 EIME 210900Z VRB02KT CAVOK 14/09 Q1019 N (0°) 2.3mph 14°C 9°C
21/04/19 09:00 EIME 210800Z VRB02KT CAVOK 12/08 Q1020 N (0°) 2.3mph 12°C 8°C
21/04/19 08:00 EIME 210700Z VRB01KT CAVOK 10/08 Q1020 N (0°) 1.2mph 10°C 8°C
21/04/19 07:00 EIME 210600Z VRB03KT CAVOK 08/05 Q1021 N (0°) 3.5mph 8°C 5°C
21/04/19 06:00 EIME 210500Z VRB02KT CAVOK 09/06 Q1021 N (0°) 2.3mph 9°C 6°C
21/04/19 05:00 EIME 210400Z 21004KT 190V290 CAVOK 11/06 Q1022 SSW (210°) 4.6mph 11°C 6°C
21/04/19 04:00 EIME 210300Z 18008KT CAVOK 11/06 Q1023 S (180°) 9.2mph 11°C 6°C
21/04/19 03:00 EIME 210200Z 21008KT CAVOK 11/06 Q1023 SSW (210°) 9.2mph 11°C 6°C
21/04/19 02:00 EIME 210100Z 20006KT CAVOK 13/06 Q1024 SSW (200°) 6.9mph 13°C 6°C
21/04/19 01:00 EIME 210000Z 21007KT CAVOK 12/07 Q1025 SSW (210°) 8.1mph 12°C 7°C
21/04/19 00:00 EIME 202300Z 21009KT CAVOK 14/08 Q1026 SSW (210°) 10.4mph 14°C 8°C
20/04/19 23:00 EIME 202200Z 20006KT CAVOK 14/09 Q1026 SSW (200°) 6.9mph 14°C 9°C
20/04/19 22:00 EIME 202100Z 19005KT CAVOK 14/09 Q1026 S (190°) 5.8mph 14°C 9°C
20/04/19 21:00 EIME 202000Z 20005KT CAVOK 16/09 Q1027 SSW (200°) 5.8mph 16°C 9°C
20/04/19 20:00 EIME 201900Z 21004KT CAVOK 19/10 Q1027 SSW (210°) 4.6mph 19°C 10°C
20/04/19 19:00 EIME 201800Z 08004KT CAVOK 19/10 Q1027 E (80°) 4.6mph 19°C 10°C
20/04/19 18:00 EIME 201700Z 10004KT CAVOK 21/09 Q1027 E (100°) 4.6mph 21°C 9°C
20/04/19 17:00 EIME 201600Z VRB03KT CAVOK 21/08 Q1028 N (0°) 3.5mph 21°C 8°C
20/04/19 16:00 EIME 201500Z 05003KT CAVOK 21/09 Q1029 NE (50°) 3.5mph 21°C 9°C
20/04/19 15:00 EIME 201400Z 08006KT CAVOK 21/08 Q1029 E (80°) 6.9mph 21°C 8°C
20/04/19 14:00 EIME 201300Z 07005KT CAVOK 21/08 Q1030 ENE (70°) 5.8mph 21°C 8°C
20/04/19 13:00 EIME 201200Z 05005KT 010V120 CAVOK 20/07 Q1030 NE (50°) 5.8mph 20°C 7°C
20/04/19 12:00 EIME 201100Z 03004KT CAVOK 20/08 Q1030 NNE (30°) 4.6mph 20°C 8°C
20/04/19 11:00 EIME 201000Z VRB02KT 9999 FEW020 BKN250 19/09 Q1031 N (0°) 2.3mph 19°C 9°C
20/04/19 10:00 EIME 200900Z 31004KT CAVOK 16/08 Q1031 NW (310°) 4.6mph 16°C 8°C
20/04/19 09:00 EIME 200800Z 30004KT CAVOK 14/07 Q1031 WNW (300°) 4.6mph 14°C 7°C
20/04/19 08:00 EIME 200700Z 29004KT CAVOK 11/08 Q1031 WNW (290°) 4.6mph 11°C 8°C
20/04/19 07:00 EIME 200600Z 21004KT CAVOK 08/05 Q1031 SSW (210°) 4.6mph 8°C 5°C
20/04/19 06:00 EIME 200500Z 21004KT CAVOK 06/05 Q1031 SSW (210°) 4.6mph 6°C 5°C
20/04/19 05:00 EIME 200400Z 25004KT CAVOK 07/05 Q1031 WSW (250°) 4.6mph 7°C 5°C
20/04/19 04:00 EIME 200300Z 18003KT CAVOK 12/04 Q1031 S (180°) 3.5mph 12°C 4°C
20/04/19 03:00 EIME 200200Z 22003KT CAVOK 09/06 Q1031 SW (220°) 3.5mph 9°C 6°C
20/04/19 02:00 EIME 200100Z 25003KT CAVOK 08/06 Q1031 WSW (250°) 3.5mph 8°C 6°C
20/04/19 01:00 EIME 200000Z 27002KT CAVOK 10/06 Q1031 W (270°) 2.3mph 10°C 6°C
20/04/19 00:00 EIME 192300Z 07001KT CAVOK 13/07 Q1031 ENE (70°) 1.2mph 13°C 7°C
19/04/19 23:00 EIME 192200Z 00000KT CAVOK 15/07 Q1030 N (0°) 15°C 7°C
19/04/19 22:00 EIME 192100Z 17002KT CAVOK 14/09 Q1030 S (170°) 2.3mph 14°C 9°C
19/04/19 21:00 EIME 192000Z VRB03KT 9999 FEW018 SCT120 BKN250 16/08 Q1030 N (0°) 3.5mph 16°C 8°C
19/04/19 20:00 EIME 191900Z VRB03KT 9999 FEW018 SCT120 BKN250 17/08 Q1029 N (0°) 3.5mph 17°C 8°C
19/04/19 19:00 EIME 191800Z 22005KT 9999 FEW018 SCT130 BKN250 19/10 Q1029 SW (220°) 5.8mph 19°C 10°C
19/04/19 18:00 EIME 191700Z 24008KT 9999 FEW018 SCT120 BKN250 20/09 Q1029 WSW (240°) 9.2mph 20°C 9°C
19/04/19 17:00 EIME 191600Z 23007KT 9999 FEW018 SCT120 BKN250 21/07 Q1028 SW (230°) 8.1mph 21°C 7°C
19/04/19 16:00 EIME 191500Z 23007KT 9999 FEW018 BKN250 21/07 Q1028 SW (230°) 8.1mph 21°C 7°C
19/04/19 15:00 EIME 191400Z VRB03KT 9000 FEW018 BKN250 21/12 Q1028 N (0°) 3.5mph 21°C 12°C
19/04/19 14:00 EIME 191300Z VRB03KT 9000 FEW018 BKN250 21/12 Q1028 N (0°) 3.5mph 21°C 12°C